createdAt,value
2023-03-20T00:02:22.581Z,5.43
2023-03-20T00:04:49.122Z,5.70
2023-03-20T00:07:21.787Z,6.10
2023-03-20T00:09:51.802Z,6.15
2023-03-20T00:12:28.775Z,6.65
2023-03-20T00:14:55.606Z,6.45
2023-03-20T00:17:22.116Z,6.32
2023-03-20T00:19:48.973Z,7.03
2023-03-20T00:22:15.483Z,7.20
2023-03-20T00:24:42.086Z,6.97
2023-03-20T00:27:13.811Z,7.75
2023-03-20T00:29:40.537Z,10.35
2023-03-20T00:32:16.041Z,10.57
2023-03-20T00:34:48.809Z,12.45
2023-03-20T00:37:15.437Z,12.55
2023-03-20T00:39:41.929Z,13.52
2023-03-20T00:42:20.571Z,14.02
2023-03-20T00:44:55.698Z,16.70
2023-03-20T00:47:24.292Z,16.80
2023-03-20T00:49:52.460Z,17.23
2023-03-20T00:52:20.670Z,17.20
2023-03-20T00:54:47.379Z,18.05
2023-03-20T00:57:26.588Z,17.65
2023-03-20T01:00:11.849Z,18.48
2023-03-20T01:02:38.618Z,18.48
2023-03-20T01:05:06.579Z,19.00
2023-03-20T01:07:33.822Z,18.88
2023-03-20T01:10:00.474Z,19.58
2023-03-20T01:12:27.389Z,18.80
2023-03-20T01:14:56.733Z,19.27
2023-03-20T01:17:24.610Z,18.90
2023-03-20T01:19:51.125Z,20.08
2023-03-20T01:22:18.253Z,19.77
2023-03-20T01:24:45.472Z,20.17
2023-03-20T01:27:17.814Z,20.17
2023-03-20T01:29:44.957Z,22.52
2023-03-20T01:32:22.245Z,21.17
2023-03-20T01:34:48.948Z,21.05
2023-03-20T01:37:27.180Z,21.77
2023-03-20T01:39:54.370Z,22.38
2023-03-20T01:42:20.925Z,22.20
2023-03-20T01:44:48.486Z,24.17
2023-03-20T01:47:28.435Z,25.08
2023-03-20T01:50:19.753Z,24.85
2023-03-20T01:52:48.838Z,25.35
2023-03-20T01:55:15.572Z,25.23
2023-03-20T01:57:42.124Z,25.45
2023-03-20T02:00:15.560Z,24.75
2023-03-20T02:02:45.134Z,28.08
2023-03-20T02:05:14.350Z,25.67
2023-03-20T02:07:40.927Z,26.58
2023-03-20T02:10:19.024Z,27.60
2023-03-20T02:12:47.423Z,25.75
2023-03-20T02:15:16.966Z,26.38
2023-03-20T02:17:44.295Z,26.88
2023-03-20T02:20:25.502Z,26.02
2023-03-20T02:23:00.765Z,27.27
2023-03-20T02:25:52.778Z,28.75
2023-03-20T02:28:33.599Z,27.63
2023-03-20T02:31:15.453Z,28.13
2023-03-20T02:33:47.657Z,27.80
2023-03-20T02:36:32.340Z,28.58
2023-03-20T02:39:29.579Z,28.30
2023-03-20T02:41:59.101Z,28.65
2023-03-20T02:44:40.212Z,28.88
2023-03-20T02:47:47.844Z,29.07
2023-03-20T02:50:27.841Z,32.92
2023-03-20T02:53:12.846Z,35.22
2023-03-20T02:55:44.027Z,36.83
2023-03-20T02:58:22.498Z,36.47
2023-03-20T03:01:03.575Z,37.63
2023-03-20T03:03:51.416Z,39.78
2023-03-20T03:06:24.224Z,41.60
2023-03-20T03:09:00.163Z,43.55
2023-03-20T03:11:26.717Z,41.72
2023-03-20T03:13:56.306Z,44.00
2023-03-20T03:16:27.807Z,43.72
2023-03-20T03:19:13.175Z,42.40
2023-03-20T03:21:40.765Z,41.38
2023-03-20T03:24:39.923Z,41.85
2023-03-20T03:27:18.733Z,40.80
2023-03-20T03:29:51.422Z,41.03
2023-03-20T03:32:33.497Z,40.85
2023-03-20T03:37:34.127Z,41.25
2023-03-20T03:40:08.068Z,41.88
2023-03-20T03:43:32.196Z,40.25
2023-03-20T03:46:09.389Z,39.60
2023-03-20T03:48:43.759Z,37.85
2023-03-20T03:51:17.870Z,37.45
2023-03-20T03:53:52.302Z,34.80
2023-03-20T03:56:24.111Z,35.05
2023-03-20T03:58:57.813Z,34.60
2023-03-20T04:01:27.502Z,32.65
2023-03-20T04:04:00.965Z,33.58
2023-03-20T04:06:28.448Z,33.35
2023-03-20T04:08:55.169Z,33.75
2023-03-20T04:11:24.611Z,30.77
2023-03-20T04:13:52.359Z,32.70
2023-03-20T04:16:20.997Z,31.52
2023-03-20T04:18:48.024Z,30.75
2023-03-20T04:21:16.120Z,32.55
2023-03-20T04:23:43.349Z,31.95
2023-03-20T04:26:09.957Z,31.88
2023-03-20T04:28:36.832Z,32.22
2023-03-20T04:31:04.002Z,31.75
2023-03-20T04:33:30.777Z,31.38
2023-03-20T04:35:57.638Z,32.30
2023-03-20T04:38:24.707Z,32.50
2023-03-20T04:40:51.510Z,30.33
2023-03-20T04:43:18.272Z,30.75
2023-03-20T04:45:44.795Z,30.00
2023-03-20T04:48:11.324Z,30.10
2023-03-20T04:50:38.070Z,26.60
2023-03-20T04:53:05.060Z,28.02
2023-03-20T04:55:31.884Z,28.35
2023-03-20T04:57:58.525Z,27.20
2023-03-20T05:00:25.175Z,27.50
2023-03-20T05:02:51.697Z,26.88
2023-03-20T05:05:18.148Z,27.42
2023-03-20T05:07:44.789Z,25.33
2023-03-20T05:10:14.777Z,25.45
2023-03-20T05:12:41.358Z,25.55
2023-03-20T05:15:08.536Z,25.77
2023-03-20T05:17:35.256Z,25.23
2023-03-20T05:20:01.847Z,24.98
2023-03-20T05:22:28.390Z,25.02
2023-03-20T05:24:54.862Z,23.70
2023-03-20T05:27:21.308Z,24.17
2023-03-20T05:29:47.900Z,24.00
2023-03-20T05:32:15.629Z,23.85
2023-03-20T05:34:42.117Z,25.95
2023-03-20T05:37:08.662Z,25.05
2023-03-20T05:39:35.506Z,25.15
2023-03-20T05:42:02.022Z,24.85
2023-03-20T05:44:28.561Z,25.70
2023-03-20T05:46:55.301Z,26.80
2023-03-20T05:49:21.817Z,25.65
2023-03-20T05:51:48.411Z,25.88
2023-03-20T05:54:16.186Z,26.90
2023-03-20T05:56:42.682Z,26.95
2023-03-20T05:59:09.193Z,26.08
2023-03-20T06:01:35.742Z,26.08
2023-03-20T06:04:02.412Z,26.58
2023-03-20T06:06:28.914Z,26.85
2023-03-20T06:08:55.384Z,26.45
2023-03-20T06:11:21.819Z,26.02
2023-03-20T06:13:49.382Z,26.95
2023-03-20T06:16:15.944Z,27.48
2023-03-20T06:18:42.455Z,26.60
2023-03-20T06:21:09.349Z,28.63
2023-03-20T06:23:36.341Z,27.90
2023-03-20T06:26:02.951Z,26.13
2023-03-20T06:28:30.104Z,26.75
2023-03-20T06:30:57.190Z,28.63
2023-03-20T06:33:24.837Z,26.88
2023-03-20T06:35:51.335Z,28.13
2023-03-20T06:38:17.818Z,27.42
2023-03-20T06:40:45.222Z,27.08
2023-03-20T06:43:12.549Z,27.67
2023-03-20T06:45:39.237Z,27.55
2023-03-20T06:48:09.444Z,27.10
2023-03-20T06:50:36.484Z,27.25
2023-03-20T06:53:03.502Z,27.08
2023-03-20T06:55:30.270Z,27.83
2023-03-20T06:57:56.993Z,28.48
2023-03-20T07:00:23.898Z,27.58
2023-03-20T07:02:50.434Z,28.10
2023-03-20T07:05:17.592Z,28.17
2023-03-20T07:07:44.221Z,28.08
2023-03-20T07:10:12.423Z,28.92
2023-03-20T07:12:39.445Z,26.95
2023-03-20T07:15:09.532Z,26.98
2023-03-20T07:17:35.995Z,26.83
2023-03-20T07:20:03.097Z,27.48
2023-03-20T07:22:31.330Z,26.83
2023-03-20T07:24:58.252Z,27.15
2023-03-20T07:27:24.763Z,27.48
2023-03-20T07:29:51.422Z,25.48
2023-03-20T07:32:18.100Z,26.10
2023-03-20T07:34:45.008Z,26.77
2023-03-20T07:37:11.591Z,25.95
2023-03-20T07:39:38.101Z,26.35
2023-03-20T07:42:04.889Z,24.92
2023-03-20T07:44:31.371Z,24.63
2023-03-20T07:46:57.986Z,26.25
2023-03-20T07:49:24.455Z,26.98
2023-03-20T07:51:51.007Z,25.27
2023-03-20T07:54:17.942Z,26.98
2023-03-20T07:56:44.453Z,25.98
2023-03-20T07:59:12.760Z,27.77
2023-03-20T08:01:39.590Z,26.50
2023-03-20T08:04:06.284Z,27.92
2023-03-20T08:06:32.881Z,25.55
2023-03-20T08:08:59.558Z,25.77
2023-03-20T08:11:26.359Z,25.65
2023-03-20T08:13:52.903Z,25.48
2023-03-20T08:16:19.778Z,24.48
2023-03-20T08:18:52.638Z,23.23
2023-03-20T08:21:19.783Z,24.13
2023-03-20T08:23:46.222Z,23.20
2023-03-20T08:26:13.035Z,22.73
2023-03-20T08:28:47.471Z,23.00
2023-03-20T08:31:15.679Z,23.40
2023-03-20T08:33:42.146Z,21.95
2023-03-20T08:36:09.042Z,21.42
2023-03-20T08:38:35.959Z,21.35
2023-03-20T08:41:02.716Z,22.00
2023-03-20T08:43:29.449Z,21.75
2023-03-20T08:45:56.127Z,21.73
2023-03-20T08:48:22.686Z,23.10
2023-03-20T08:50:49.213Z,22.10
2023-03-20T08:53:15.736Z,23.73
2023-03-20T08:55:48.022Z,24.13
2023-03-20T08:58:14.581Z,24.50
2023-03-20T09:00:42.063Z,26.83
2023-03-20T09:03:14.849Z,26.85
2023-03-20T09:05:44.243Z,26.30
2023-03-20T09:08:10.905Z,29.10
2023-03-20T09:10:37.454Z,28.20
2023-03-20T09:13:15.481Z,28.45
2023-03-20T09:15:51.413Z,29.60
2023-03-20T09:18:19.611Z,29.17
2023-03-20T09:20:47.248Z,31.10
2023-03-20T09:23:13.786Z,30.27
2023-03-20T09:25:40.757Z,30.33
2023-03-20T09:28:07.557Z,30.58
2023-03-20T09:30:34.612Z,28.35
2023-03-20T09:33:01.322Z,27.95
2023-03-20T09:35:27.950Z,26.30
2023-03-20T09:37:54.453Z,23.63
2023-03-20T09:40:31.281Z,24.23
2023-03-20T09:43:10.187Z,23.55
2023-03-20T09:46:08.442Z,20.13
2023-03-20T09:48:44.666Z,22.52
2023-03-20T09:51:35.867Z,21.40
2023-03-20T09:54:10.884Z,20.98
2023-03-20T09:56:38.043Z,22.33
2023-03-20T09:59:06.675Z,21.77
2023-03-20T10:01:48.352Z,22.83
2023-03-20T10:04:14.971Z,22.10
2023-03-20T10:06:41.500Z,23.17
2023-03-20T10:09:24.801Z,22.92
2023-03-20T10:12:00.603Z,23.08
2023-03-20T10:14:45.059Z,22.73
2023-03-20T10:17:48.785Z,24.95
2023-03-20T10:20:24.092Z,23.52
2023-03-20T10:23:00.691Z,24.40
2023-03-20T10:25:53.921Z,23.02
2023-03-20T10:28:45.846Z,23.15
2023-03-20T10:31:31.288Z,24.30
2023-03-20T10:34:03.509Z,23.42
2023-03-20T10:36:39.002Z,23.48
2023-03-20T10:39:37.739Z,20.50
2023-03-20T10:42:14.680Z,21.70
2023-03-20T10:44:45.237Z,21.63
2023-03-20T10:47:17.045Z,21.88
2023-03-20T10:52:18.038Z,20.73
2023-03-20T10:57:26.317Z,21.30
2023-03-20T10:59:58.331Z,20.25
2023-03-20T11:02:30.868Z,21.92
2023-03-20T11:05:00.609Z,19.67
2023-03-20T11:07:32.196Z,19.40
2023-03-20T11:10:04.800Z,24.45
2023-03-20T11:12:37.456Z,24.48
2023-03-20T11:15:20.566Z,25.08
2023-03-20T11:18:01.552Z,22.63
2023-03-20T11:20:35.690Z,20.60
2023-03-20T11:23:08.436Z,20.98
2023-03-20T11:25:38.507Z,21.27
2023-03-20T11:28:40.656Z,20.77
2023-03-20T11:31:35.271Z,20.05
2023-03-20T11:34:04.629Z,18.13
2023-03-20T11:36:34.595Z,17.70
2023-03-20T11:39:10.396Z,17.38
2023-03-20T11:41:49.973Z,17.48
2023-03-20T11:44:23.892Z,16.17
2023-03-20T11:46:57.716Z,14.93
2023-03-20T11:49:27.619Z,14.80
2023-03-20T11:51:59.730Z,12.88
2023-03-20T11:54:27.064Z,13.70
2023-03-20T11:56:58.728Z,14.20
2023-03-20T11:59:34.319Z,14.30
2023-03-20T12:02:04.890Z,14.10
2023-03-20T12:04:43.964Z,13.50
2023-03-20T12:07:17.933Z,13.88
2023-03-20T12:10:10.461Z,14.25
2023-03-20T12:12:46.682Z,15.18
2023-03-20T12:15:13.127Z,13.63
2023-03-20T12:17:46.148Z,12.80
2023-03-20T12:20:37.377Z,12.60
2023-03-20T12:23:09.924Z,13.63
2023-03-20T12:25:58.182Z,13.90
2023-03-20T12:28:40.632Z,13.10
2023-03-20T12:31:16.253Z,13.73
2023-03-20T12:34:10.462Z,13.77
2023-03-20T12:36:47.032Z,13.98
2023-03-20T12:39:24.151Z,13.43
2023-03-20T12:41:59.844Z,13.55
2023-03-20T12:44:48.482Z,13.38
2023-03-20T12:47:42.763Z,13.30
2023-03-20T12:50:18.203Z,12.32
2023-03-20T12:53:23.171Z,11.73
2023-03-20T12:55:52.244Z,10.77
2023-03-20T12:58:43.527Z,11.20
2023-03-20T13:01:47.469Z,10.77
2023-03-20T13:04:38.747Z,10.77
2023-03-20T13:07:20.512Z,10.98
2023-03-20T13:10:12.541Z,10.48
2023-03-20T13:13:12.962Z,10.73
2023-03-20T13:16:08.817Z,9.85
2023-03-20T13:18:53.995Z,10.75
2023-03-20T13:21:33.032Z,10.02
2023-03-20T13:24:32.158Z,10.88
2023-03-20T13:27:01.583Z,9.82
2023-03-20T13:29:42.007Z,9.45
2023-03-20T13:32:31.520Z,10.52
2023-03-20T13:35:25.222Z,10.18
2023-03-20T13:37:58.929Z,10.00
2023-03-20T13:40:33.685Z,10.65
2023-03-20T13:43:30.929Z,10.23
2023-03-20T13:46:08.730Z,9.80
2023-03-20T13:48:45.785Z,10.20
2023-03-20T13:51:15.310Z,10.57
2023-03-20T13:54:07.009Z,11.68
2023-03-20T13:56:59.983Z,11.68
2023-03-20T13:59:51.006Z,12.13
2023-03-20T14:02:29.355Z,11.18
2023-03-20T14:05:12.102Z,11.52
2023-03-20T14:07:44.470Z,10.95
2023-03-20T14:10:25.996Z,11.75
2023-03-20T14:13:00.510Z,11.43
2023-03-20T14:15:31.934Z,11.38
2023-03-20T14:18:03.237Z,11.20
2023-03-20T14:20:34.231Z,11.02
2023-03-20T14:23:01.756Z,10.93
2023-03-20T14:25:35.064Z,11.35
2023-03-20T14:28:09.587Z,11.30
2023-03-20T14:30:36.640Z,11.18
2023-03-20T14:33:24.174Z,10.70
2023-03-20T14:36:11.288Z,10.48
2023-03-20T14:38:57.150Z,10.85
2023-03-20T14:42:05.409Z,10.98
2023-03-20T14:44:49.920Z,10.57
2023-03-20T14:47:34.068Z,10.57
2023-03-20T14:50:28.025Z,11.00
2023-03-20T14:53:15.343Z,9.60
2023-03-20T14:55:51.298Z,10.07
2023-03-20T14:58:51.265Z,10.48
2023-03-20T15:01:20.814Z,9.93
2023-03-20T15:04:04.970Z,10.60
2023-03-20T15:06:33.344Z,9.70
2023-03-20T15:09:06.856Z,9.82
2023-03-20T15:11:34.931Z,9.55
2023-03-20T15:14:06.454Z,9.40
2023-03-20T15:16:36.931Z,9.35
2023-03-20T15:19:18.093Z,9.00
2023-03-20T15:21:46.072Z,9.60
2023-03-20T15:24:26.985Z,8.82
2023-03-20T15:26:57.648Z,9.98
2023-03-20T15:29:24.779Z,9.15
2023-03-20T15:32:14.062Z,8.07
2023-03-20T15:34:42.581Z,9.40
2023-03-20T15:37:15.389Z,8.90
2023-03-20T15:39:45.311Z,9.65
2023-03-20T15:42:17.270Z,8.68
2023-03-20T15:47:20.718Z,9.68
2023-03-20T15:49:57.176Z,8.38
2023-03-20T15:52:32.099Z,8.43
2023-03-20T15:55:02.792Z,8.80
2023-03-20T15:57:38.681Z,8.52
2023-03-20T16:00:08.244Z,8.63
2023-03-20T16:02:39.071Z,9.00
2023-03-20T16:05:12.771Z,8.77
2023-03-20T16:07:39.265Z,8.82
2023-03-20T16:10:43.024Z,8.18
2023-03-20T16:13:19.519Z,9.10
2023-03-20T16:15:46.485Z,8.85
2023-03-20T16:18:18.065Z,8.27
2023-03-20T16:20:48.893Z,8.95
2023-03-20T16:23:27.346Z,9.20
2023-03-20T16:25:59.014Z,9.32
2023-03-20T16:28:27.915Z,9.27
2023-03-20T16:31:10.453Z,10.40
2023-03-20T16:33:39.660Z,9.32
2023-03-20T16:36:07.011Z,9.98
2023-03-20T16:38:35.939Z,9.60
2023-03-20T16:41:21.360Z,9.73
2023-03-20T16:43:51.594Z,10.13
2023-03-20T16:46:26.512Z,10.25
2023-03-20T16:48:58.709Z,10.25
2023-03-20T16:51:30.786Z,10.88
2023-03-20T16:53:59.443Z,10.65
2023-03-20T16:56:34.435Z,11.23
2023-03-20T16:59:17.275Z,11.50
2023-03-20T17:01:48.171Z,11.68
2023-03-20T17:04:20.798Z,11.55
2023-03-20T17:06:50.787Z,12.25
2023-03-20T17:09:25.892Z,13.20
2023-03-20T17:12:02.504Z,12.13
2023-03-20T17:14:29.779Z,12.35
2023-03-20T17:16:57.776Z,12.15
2023-03-20T17:19:24.810Z,12.25
2023-03-20T17:21:51.617Z,12.45
2023-03-20T17:24:18.496Z,13.93
2023-03-20T17:26:52.138Z,13.30
2023-03-20T17:29:18.838Z,13.98
2023-03-20T17:31:46.080Z,13.90
2023-03-20T17:34:14.899Z,14.02
2023-03-20T17:36:41.925Z,13.77
2023-03-20T17:39:16.931Z,15.02
2023-03-20T17:41:43.555Z,14.75
2023-03-20T17:44:10.113Z,14.95
2023-03-20T17:46:53.858Z,15.13
2023-03-20T17:49:26.921Z,15.25
2023-03-20T17:51:54.375Z,15.18
2023-03-20T17:54:21.421Z,15.70
2023-03-20T17:56:48.046Z,15.95
2023-03-20T17:59:14.679Z,17.00
2023-03-20T18:01:41.784Z,16.30
2023-03-20T18:04:08.445Z,16.30
2023-03-20T18:06:34.953Z,15.52
2023-03-20T18:09:05.959Z,15.45
2023-03-20T18:11:32.489Z,16.45
2023-03-20T18:14:01.891Z,16.48
2023-03-20T18:16:28.489Z,15.38
2023-03-20T18:18:55.745Z,16.25
2023-03-20T18:21:22.299Z,16.40
2023-03-20T18:23:48.926Z,16.38
2023-03-20T18:26:22.561Z,16.73
2023-03-20T18:28:50.610Z,16.88
2023-03-20T18:31:20.583Z,16.80
2023-03-20T18:33:52.472Z,17.80
2023-03-20T18:36:21.628Z,17.50
2023-03-20T18:38:48.817Z,17.05
2023-03-20T18:41:18.043Z,17.75
2023-03-20T18:43:46.489Z,18.23
2023-03-20T18:46:15.321Z,18.45
2023-03-20T18:48:42.712Z,19.73
2023-03-20T18:51:09.608Z,19.10
2023-03-20T18:53:36.429Z,19.17
2023-03-20T18:56:03.106Z,18.63
2023-03-20T18:58:31.770Z,19.00
2023-03-20T19:00:59.743Z,17.67
2023-03-20T19:03:28.450Z,19.17
2023-03-20T19:05:57.973Z,18.20
2023-03-20T19:08:24.824Z,18.02
2023-03-20T19:10:51.393Z,18.33
2023-03-20T19:13:20.203Z,18.17
2023-03-20T19:15:47.034Z,17.52
2023-03-20T19:18:17.683Z,18.45
2023-03-20T19:20:48.014Z,18.35
2023-03-20T19:23:16.568Z,18.00
2023-03-20T19:25:45.915Z,17.88
2023-03-20T19:28:21.637Z,17.98
2023-03-20T19:30:49.051Z,18.50
2023-03-20T19:33:15.532Z,19.20
2023-03-20T19:38:29.245Z,17.98
2023-03-20T19:40:55.898Z,17.98
2023-03-20T19:43:23.284Z,17.50
2023-03-20T19:45:59.222Z,18.13
2023-03-20T19:48:49.556Z,17.27
2023-03-20T19:51:20.819Z,17.67
2023-03-20T19:53:48.191Z,17.63
2023-03-20T19:56:16.832Z,17.00
2023-03-20T19:58:44.400Z,16.25
2023-03-20T20:01:16.806Z,17.20
2023-03-20T20:03:43.892Z,14.98
2023-03-20T20:06:10.493Z,15.55
2023-03-20T20:08:49.145Z,14.88
2023-03-20T20:11:20.550Z,14.30
2023-03-20T20:14:04.753Z,16.07
2023-03-20T20:16:32.979Z,15.80
2023-03-20T20:18:59.492Z,13.82
2023-03-20T20:22:13.481Z,14.65
2023-03-20T20:24:12.734Z,14.55
2023-03-20T20:26:47.884Z,13.77
2023-03-20T20:29:19.660Z,14.80
2023-03-20T20:31:46.214Z,14.23
2023-03-20T20:35:15.192Z,14.55
2023-03-20T20:39:46.179Z,13.98
2023-03-20T20:42:12.956Z,13.93
2023-03-20T20:44:40.863Z,13.75
2023-03-20T20:47:08.407Z,13.52
2023-03-20T20:49:35.158Z,13.93
2023-03-20T20:52:01.927Z,13.05
2023-03-20T20:54:28.994Z,12.68
2023-03-20T20:56:56.155Z,12.32
2023-03-20T20:59:23.350Z,9.88
2023-03-20T21:01:50.648Z,9.48
2023-03-20T21:04:17.309Z,10.40
2023-03-20T21:07:08.099Z,9.27
2023-03-20T21:09:30.382Z,8.85
2023-03-20T21:11:56.875Z,8.90
2023-03-20T21:14:23.436Z,8.45
2023-03-20T21:16:49.899Z,8.10
2023-03-20T21:19:16.422Z,8.70
2023-03-20T21:21:42.908Z,9.18
2023-03-20T21:24:30.558Z,9.10
2023-03-20T21:26:59.220Z,8.93
2023-03-20T21:29:26.828Z,8.50
2023-03-20T21:31:53.574Z,8.20
2023-03-20T21:34:20.303Z,8.82
2023-03-20T21:36:49.198Z,8.45
2023-03-20T21:39:17.485Z,8.45
2023-03-20T21:41:45.260Z,8.93
2023-03-20T21:44:17.217Z,8.50
2023-03-20T21:56:00.220Z,9.02
2023-03-20T21:58:44.523Z,8.57
2023-03-20T22:04:06.184Z,9.82
2023-03-20T22:10:05.675Z,10.30
2023-03-20T22:12:28.294Z,10.20
2023-03-20T22:15:29.046Z,10.32
2023-03-20T22:23:43.257Z,10.77
2023-03-20T22:37:37.768Z,11.23
2023-03-20T22:45:17.888Z,11.43
2023-03-20T22:47:44.596Z,10.82
2023-03-20T22:50:11.050Z,11.30
2023-03-20T22:52:48.713Z,11.52
2023-03-20T22:55:17.062Z,11.85
2023-03-20T22:57:56.267Z,11.27
2023-03-20T23:00:30.535Z,11.02
2023-03-20T23:03:06.706Z,11.30
2023-03-20T23:05:40.980Z,11.80
2023-03-20T23:08:08.985Z,11.15
2023-03-20T23:10:37.817Z,11.27
2023-03-20T23:13:04.826Z,10.88
2023-03-20T23:15:31.683Z,10.85
2023-03-20T23:17:58.236Z,10.30
2023-03-20T23:20:25.354Z,11.05
2023-03-20T23:22:51.863Z,10.75
2023-03-20T23:25:31.130Z,10.60
2023-03-20T23:28:05.372Z,10.52
2023-03-20T23:30:41.963Z,11.57
2023-03-20T23:33:11.710Z,11.27
2023-03-20T23:35:38.321Z,10.57
2023-03-20T23:38:04.819Z,11.65
2023-03-20T23:40:31.354Z,11.18
2023-03-20T23:42:57.840Z,11.50
2023-03-20T23:45:24.444Z,10.68
2023-03-20T23:47:51.091Z,10.48
2023-03-20T23:50:28.921Z,11.05
2023-03-20T23:53:13.226Z,10.50
2023-03-20T23:55:45.288Z,9.77
2023-03-20T23:58:13.025Z,10.23
